createdAt,value
2019-03-15T00:02:22.950Z,102.05
2019-03-15T00:04:53.289Z,99.35
2019-03-15T00:07:23.633Z,102.02
2019-03-15T00:09:53.961Z,100.45
2019-03-15T00:12:24.363Z,98.33
2019-03-15T00:14:54.654Z,97.62
2019-03-15T00:17:24.974Z,95.62
2019-03-15T00:19:55.361Z,94.47
2019-03-15T00:22:25.886Z,95.57
2019-03-15T00:24:56.272Z,91.70
2019-03-15T00:27:26.571Z,92.42
2019-03-15T00:29:57.616Z,92.55
2019-03-15T00:32:28.306Z,91.60
2019-03-15T00:34:59.065Z,90.40
2019-03-15T00:37:30.762Z,89.72
2019-03-15T00:40:01.529Z,89.15
2019-03-15T00:42:36.384Z,87.55
2019-03-15T00:45:08.344Z,86.12
2019-03-15T00:47:39.032Z,86.63
2019-03-15T00:50:10.208Z,85.75
2019-03-15T00:52:40.544Z,84.17
2019-03-15T00:55:10.953Z,85.38
2019-03-15T00:57:41.361Z,85.30
2019-03-15T01:00:12.926Z,81.40
2019-03-15T01:02:44.373Z,82.97
2019-03-15T01:05:14.887Z,82.40
2019-03-15T01:07:45.155Z,81.17
2019-03-15T01:10:15.614Z,78.47
2019-03-15T01:12:46.028Z,77.78
2019-03-15T01:15:16.539Z,80.45
2019-03-15T01:17:46.985Z,77.40
2019-03-15T01:20:17.235Z,77.75
2019-03-15T01:22:48.901Z,73.12
2019-03-15T01:25:19.250Z,73.37
2019-03-15T01:27:49.580Z,74.58
2019-03-15T01:30:24.834Z,74.20
2019-03-15T01:32:55.187Z,70.78
2019-03-15T01:35:25.443Z,73.22
2019-03-15T01:37:55.725Z,71.33
2019-03-15T01:40:26.092Z,73.42
2019-03-15T01:42:56.424Z,68.65
2019-03-15T01:45:26.896Z,68.05
2019-03-15T01:47:57.272Z,67.70
2019-03-15T01:50:27.603Z,67.12
2019-03-15T01:52:58.509Z,66.87
2019-03-15T01:55:28.897Z,69.15
2019-03-15T01:57:59.184Z,66.80
2019-03-15T02:00:29.429Z,65.45
2019-03-15T02:03:02.354Z,64.75
2019-03-15T02:05:31.792Z,64.70
2019-03-15T02:08:02.131Z,64.75
2019-03-15T02:10:32.792Z,63.70
2019-03-15T02:13:03.264Z,61.73
2019-03-15T02:15:33.597Z,62.93
2019-03-15T02:18:04.174Z,62.75
2019-03-15T02:20:34.777Z,61.00
2019-03-15T02:23:06.747Z,59.58
2019-03-15T02:25:37.310Z,59.27
2019-03-15T02:28:08.019Z,60.00
2019-03-15T02:30:38.340Z,59.45
2019-03-15T02:33:08.766Z,57.15
2019-03-15T02:35:39.183Z,58.50
2019-03-15T02:38:09.534Z,56.90
2019-03-15T02:40:40.232Z,54.93
2019-03-15T02:43:13.311Z,54.85
2019-03-15T02:45:43.651Z,56.65
2019-03-15T02:48:15.077Z,54.10
2019-03-15T02:50:47.209Z,53.50
2019-03-15T02:53:17.593Z,53.73
2019-03-15T02:55:48.532Z,52.65
2019-03-15T02:58:20.048Z,50.83
2019-03-15T03:00:50.411Z,48.80
2019-03-15T03:03:21.005Z,46.58
2019-03-15T03:05:51.333Z,47.33
2019-03-15T03:08:22.627Z,46.18
2019-03-15T03:10:53.105Z,48.40
2019-03-15T03:13:23.406Z,46.10
2019-03-15T03:15:53.843Z,44.75
2019-03-15T03:18:24.086Z,45.95
2019-03-15T03:20:54.425Z,43.87
2019-03-15T03:23:24.771Z,44.88
2019-03-15T03:25:55.677Z,43.65
2019-03-15T03:28:25.883Z,42.30
2019-03-15T03:30:56.194Z,43.02
2019-03-15T03:33:26.563Z,42.50
2019-03-15T03:35:56.856Z,41.65
2019-03-15T03:38:27.219Z,41.92
2019-03-15T03:40:57.487Z,40.40
2019-03-15T03:43:28.876Z,40.63
2019-03-15T03:45:59.126Z,40.17
2019-03-15T03:48:29.358Z,41.37
2019-03-15T03:51:00.363Z,41.23
2019-03-15T03:53:33.668Z,37.25
2019-03-15T03:56:04.005Z,39.00
2019-03-15T03:58:34.247Z,41.42
2019-03-15T04:01:07.423Z,43.38
2019-03-15T04:03:37.663Z,46.08
2019-03-15T04:06:07.902Z,48.08
2019-03-15T04:08:38.207Z,50.43
2019-03-15T04:11:08.561Z,56.98
2019-03-15T04:13:38.950Z,60.15
2019-03-15T04:16:12.051Z,52.30
2019-03-15T04:18:42.391Z,52.85
2019-03-15T04:21:13.088Z,53.95
2019-03-15T04:23:43.419Z,53.75
2019-03-15T04:26:14.814Z,54.15
2019-03-15T04:28:45.150Z,56.15
2019-03-15T04:31:15.391Z,52.15
2019-03-15T04:33:45.676Z,54.98
2019-03-15T04:36:16.176Z,54.45
2019-03-15T04:38:46.749Z,55.48
2019-03-15T04:41:18.075Z,53.95
2019-03-15T04:43:48.439Z,52.78
2019-03-15T04:46:18.780Z,54.98
2019-03-15T04:48:50.088Z,54.98
2019-03-15T04:51:20.412Z,54.55
2019-03-15T04:53:50.733Z,54.75
2019-03-15T04:56:21.101Z,52.83
2019-03-15T04:58:51.511Z,53.20
2019-03-15T05:01:21.829Z,53.78
2019-03-15T05:03:53.739Z,53.58
2019-03-15T05:06:24.039Z,52.50
2019-03-15T05:08:54.356Z,51.50
2019-03-15T05:11:24.591Z,52.93
2019-03-15T05:13:54.986Z,49.95
2019-03-15T05:16:25.999Z,50.85
2019-03-15T05:18:56.349Z,48.90
2019-03-15T05:21:27.755Z,48.78
2019-03-15T05:23:58.214Z,48.35
2019-03-15T05:26:28.658Z,47.75
2019-03-15T05:29:00.209Z,47.93
2019-03-15T05:31:30.567Z,47.20
2019-03-15T05:34:00.827Z,46.75
2019-03-15T05:36:31.152Z,47.70
2019-03-15T05:39:04.103Z,47.83
2019-03-15T05:41:34.483Z,45.90
2019-03-15T05:44:04.803Z,46.33
2019-03-15T05:46:35.055Z,47.45
2019-03-15T05:49:05.355Z,46.95
2019-03-15T05:51:35.696Z,46.30
2019-03-15T05:54:06.031Z,45.20
2019-03-15T05:56:36.347Z,45.28
2019-03-15T05:59:06.747Z,47.17
2019-03-15T06:01:37.046Z,43.75
2019-03-15T06:04:07.377Z,42.85
2019-03-15T06:06:38.101Z,45.23
2019-03-15T06:09:08.476Z,44.80
2019-03-15T06:11:38.790Z,45.38
2019-03-15T06:14:09.065Z,47.73
2019-03-15T06:16:39.352Z,45.23
2019-03-15T06:19:09.717Z,44.73
2019-03-15T06:21:40.081Z,43.17
2019-03-15T06:24:13.789Z,42.48
2019-03-15T06:26:45.519Z,41.40
2019-03-15T06:29:15.785Z,41.00
2019-03-15T06:31:46.197Z,40.50
2019-03-15T06:34:16.452Z,40.83
2019-03-15T06:36:46.702Z,41.48
2019-03-15T06:39:16.972Z,42.05
2019-03-15T06:41:47.295Z,41.58
2019-03-15T06:44:17.676Z,40.70
2019-03-15T06:46:48.123Z,39.20
2019-03-15T06:49:18.434Z,38.73
2019-03-15T06:51:48.762Z,38.15
2019-03-15T06:54:19.114Z,38.23
2019-03-15T06:56:49.478Z,38.70
2019-03-15T06:59:19.794Z,37.13
2019-03-15T07:01:50.733Z,37.17
2019-03-15T07:04:21.399Z,35.92
2019-03-15T07:06:51.660Z,35.50
2019-03-15T07:09:22.004Z,35.78
2019-03-15T07:11:52.376Z,34.00
2019-03-15T07:14:22.756Z,34.53
2019-03-15T07:16:52.976Z,34.15
2019-03-15T07:19:27.630Z,33.25
2019-03-15T07:21:55.811Z,33.50
2019-03-15T07:24:26.258Z,33.20
2019-03-15T07:26:56.384Z,33.38
2019-03-15T07:29:26.716Z,32.63
2019-03-15T07:31:57.646Z,33.55
2019-03-15T07:34:27.940Z,32.70
2019-03-15T07:36:58.273Z,32.03
2019-03-15T07:39:28.546Z,31.12
2019-03-15T07:42:00.922Z,32.20
2019-03-15T07:44:31.357Z,31.75
2019-03-15T07:47:02.107Z,30.70
2019-03-15T07:49:32.353Z,29.92
2019-03-15T07:52:03.995Z,29.57
2019-03-15T07:54:38.259Z,28.57
2019-03-15T07:57:06.536Z,29.82
2019-03-15T07:59:36.838Z,28.83
2019-03-15T08:02:08.722Z,28.23
2019-03-15T08:04:39.061Z,28.27
2019-03-15T08:07:09.378Z,27.85
2019-03-15T08:09:39.737Z,29.07
2019-03-15T08:12:09.991Z,27.87
2019-03-15T08:14:40.274Z,26.33
2019-03-15T08:17:10.581Z,27.70
2019-03-15T08:19:40.859Z,27.62
2019-03-15T08:22:11.241Z,26.40
2019-03-15T08:24:50.860Z,25.37
2019-03-15T08:27:16.088Z,25.85
2019-03-15T08:29:45.731Z,25.25
2019-03-15T08:32:16.080Z,25.35
2019-03-15T08:34:46.617Z,26.23
2019-03-15T08:37:16.976Z,26.07
2019-03-15T08:39:47.404Z,24.60
2019-03-15T08:42:17.703Z,25.12
2019-03-15T08:44:47.983Z,24.63
2019-03-15T08:47:21.537Z,23.55
2019-03-15T08:49:50.432Z,23.73
2019-03-15T08:52:20.781Z,24.98
2019-03-15T08:55:04.716Z,23.50
2019-03-15T08:57:24.407Z,23.73
2019-03-15T08:59:57.716Z,23.77
2019-03-15T09:02:26.703Z,22.82
2019-03-15T09:04:57.029Z,22.15
2019-03-15T09:07:27.315Z,23.27
2019-03-15T09:09:57.566Z,21.70
2019-03-15T09:12:29.591Z,22.85
2019-03-15T09:14:59.883Z,23.10
2019-03-15T09:17:30.251Z,21.82
2019-03-15T09:20:00.648Z,21.97
2019-03-15T09:22:31.361Z,22.58
2019-03-15T09:25:02.812Z,21.68
2019-03-15T09:27:33.254Z,20.85
2019-03-15T09:30:03.722Z,20.65
2019-03-15T09:32:34.053Z,21.17
2019-03-15T09:35:04.464Z,21.37
2019-03-15T09:37:35.162Z,19.75
2019-03-15T09:40:06.968Z,19.85
2019-03-15T09:42:37.223Z,20.15
2019-03-15T09:45:09.617Z,19.77
2019-03-15T09:47:39.871Z,19.42
2019-03-15T09:50:21.528Z,20.27
2019-03-15T09:52:43.283Z,19.10
2019-03-15T09:55:13.711Z,19.65
2019-03-15T09:57:44.000Z,19.27
2019-03-15T10:00:15.529Z,19.82
2019-03-15T10:02:45.831Z,18.48
2019-03-15T10:05:16.170Z,18.80
2019-03-15T10:07:46.618Z,17.82
2019-03-15T10:10:19.093Z,19.05
2019-03-15T10:12:50.803Z,18.70
2019-03-15T10:15:21.063Z,18.73
2019-03-15T10:17:51.454Z,18.95
2019-03-15T10:20:21.681Z,17.25
2019-03-15T10:23:05.607Z,18.00
2019-03-15T10:25:24.046Z,18.25
2019-03-15T10:27:55.523Z,17.92
2019-03-15T10:30:25.837Z,16.97
2019-03-15T10:32:56.134Z,17.30
2019-03-15T10:35:26.412Z,16.82
2019-03-15T10:37:56.824Z,15.55
2019-03-15T10:40:27.065Z,16.60
2019-03-15T10:42:57.498Z,15.93
2019-03-15T10:45:27.746Z,16.37
2019-03-15T10:47:58.152Z,15.93
2019-03-15T10:50:28.421Z,16.42
2019-03-15T10:52:58.813Z,15.60
2019-03-15T10:55:29.123Z,12.13
2019-03-15T10:57:59.530Z,12.93
2019-03-15T11:00:30.142Z,13.43
2019-03-15T11:03:00.446Z,12.70
2019-03-15T11:05:30.682Z,13.13
2019-03-15T11:08:01.033Z,12.80
2019-03-15T11:10:31.382Z,13.05
2019-03-15T11:13:01.696Z,12.07
2019-03-15T11:15:32.006Z,12.10
2019-03-15T11:18:02.375Z,12.15
2019-03-15T11:20:32.980Z,12.18
2019-03-15T11:23:03.374Z,12.73
2019-03-15T11:25:34.231Z,11.97
2019-03-15T11:28:04.554Z,11.57
2019-03-15T11:30:34.799Z,11.53
2019-03-15T11:33:05.176Z,11.25
2019-03-15T11:35:35.560Z,11.33
2019-03-15T11:38:05.954Z,11.00
2019-03-15T11:40:37.970Z,11.57
2019-03-15T11:43:08.190Z,11.03
2019-03-15T11:45:38.576Z,10.90
2019-03-15T11:48:09.236Z,11.12
2019-03-15T11:50:39.673Z,11.48
2019-03-15T11:53:10.044Z,10.78
2019-03-15T11:55:40.452Z,11.10
2019-03-15T11:58:11.191Z,11.35
2019-03-15T12:00:42.449Z,10.75
2019-03-15T12:03:12.737Z,11.40
2019-03-15T12:05:43.024Z,11.03
2019-03-15T12:08:13.345Z,10.82
2019-03-15T12:10:43.605Z,10.93
2019-03-15T12:13:14.002Z,11.12
2019-03-15T12:15:44.407Z,11.48
2019-03-15T12:18:14.701Z,10.72
2019-03-15T12:20:45.080Z,10.30
2019-03-15T12:23:15.963Z,9.85
2019-03-15T12:25:46.231Z,10.35
2019-03-15T12:28:16.485Z,10.55
2019-03-15T12:30:46.695Z,10.60
2019-03-15T12:33:16.918Z,10.25
2019-03-15T12:35:47.687Z,9.40
2019-03-15T12:38:17.955Z,9.53
2019-03-15T12:40:48.269Z,10.53
2019-03-15T12:43:18.511Z,10.30
2019-03-15T12:45:48.784Z,9.48
2019-03-15T12:48:19.655Z,9.78
2019-03-15T12:50:49.935Z,9.90
2019-03-15T12:53:18.545Z,10.23
2019-03-15T12:55:49.162Z,9.95
2019-03-15T12:58:19.614Z,9.85
2019-03-15T13:00:50.584Z,9.63
2019-03-15T13:03:20.942Z,9.75
2019-03-15T13:05:51.267Z,9.55
2019-03-15T13:08:22.204Z,9.18
2019-03-15T13:10:52.567Z,10.13
2019-03-15T13:13:22.945Z,9.10
2019-03-15T13:15:53.893Z,8.70
2019-03-15T13:18:24.127Z,8.63
2019-03-15T13:20:54.513Z,8.95
2019-03-15T13:23:28.367Z,9.20
2019-03-15T13:25:59.808Z,9.53
2019-03-15T13:28:31.492Z,5.95
2019-03-15T13:31:06.290Z,4.92
2019-03-15T13:33:36.530Z,6.67
2019-03-15T13:36:06.913Z,7.87
2019-03-15T13:38:37.117Z,7.10
2019-03-15T13:41:07.500Z,7.37
2019-03-15T13:43:38.179Z,7.80
2019-03-15T13:46:08.427Z,6.35
2019-03-15T13:48:38.780Z,6.95
2019-03-15T13:51:09.075Z,6.83
2019-03-15T13:53:39.417Z,6.08
2019-03-15T13:56:10.080Z,6.40
2019-03-15T13:58:40.463Z,6.40
2019-03-15T14:01:11.267Z,6.15
2019-03-15T14:03:41.662Z,6.47
2019-03-15T14:06:12.273Z,6.40
2019-03-15T14:08:59.900Z,6.37
2019-03-15T14:11:36.503Z,6.35
2019-03-15T14:14:17.283Z,6.65
2019-03-15T14:16:57.806Z,6.28
2019-03-15T14:19:35.195Z,5.97
2019-03-15T14:22:12.464Z,7.85
2019-03-15T14:24:48.552Z,13.53
2019-03-15T14:27:37.562Z,18.12
2019-03-15T14:30:16.558Z,15.70
2019-03-15T14:32:55.164Z,20.15
2019-03-15T14:35:37.837Z,16.77
2019-03-15T14:38:13.944Z,17.15
2019-03-15T14:40:54.839Z,15.38
2019-03-15T14:43:31.411Z,14.87
2019-03-15T14:46:11.744Z,14.60
2019-03-15T14:48:46.059Z,14.18
2019-03-15T14:51:25.076Z,14.45
2019-03-15T14:54:03.045Z,14.07
2019-03-15T14:56:38.436Z,13.78
2019-03-15T14:59:08.700Z,14.28
2019-03-15T15:01:39.109Z,13.95
2019-03-15T15:04:09.439Z,13.65
2019-03-15T15:06:39.708Z,13.68
2019-03-15T15:09:09.953Z,13.20
2019-03-15T15:11:40.355Z,11.00
2019-03-15T15:14:15.752Z,10.63
2019-03-15T15:16:49.067Z,10.60
2019-03-15T15:19:22.876Z,10.15
2019-03-15T15:22:00.197Z,10.03
2019-03-15T15:24:44.512Z,10.18
2019-03-15T15:27:18.118Z,10.05
2019-03-15T15:29:54.252Z,10.03
2019-03-15T15:32:28.297Z,9.50
2019-03-15T15:35:02.568Z,9.98
2019-03-15T15:37:33.549Z,9.40
2019-03-15T15:40:03.828Z,8.63
2019-03-15T15:42:34.608Z,8.63
2019-03-15T15:45:05.375Z,19.52
2019-03-15T15:47:35.689Z,10.70
2019-03-15T15:50:06.134Z,10.50
2019-03-15T15:52:36.424Z,9.55
2019-03-15T15:55:06.781Z,10.20
2019-03-15T15:57:37.100Z,8.08
2019-03-15T16:00:09.097Z,8.80
2019-03-15T16:02:39.456Z,7.95
2019-03-15T16:05:10.002Z,7.72
2019-03-15T16:07:43.175Z,7.12
2019-03-15T16:10:13.504Z,8.55
2019-03-15T16:12:46.338Z,7.95
2019-03-15T16:15:16.568Z,9.28
2019-03-15T16:17:46.931Z,8.53
2019-03-15T16:20:19.237Z,8.18
2019-03-15T16:22:49.467Z,8.40
2019-03-15T16:25:19.888Z,8.43
2019-03-15T16:27:50.143Z,8.58
2019-03-15T16:30:20.453Z,8.48
2019-03-15T16:32:50.654Z,8.25
2019-03-15T16:35:22.911Z,8.43
2019-03-15T16:37:55.504Z,7.80
2019-03-15T16:40:28.289Z,8.03
2019-03-15T16:42:58.582Z,8.65
2019-03-15T16:45:32.290Z,8.33
2019-03-15T16:48:03.357Z,8.60
2019-03-15T16:50:33.682Z,8.43
2019-03-15T16:53:03.977Z,8.43
2019-03-15T16:55:34.456Z,8.23
2019-03-15T16:58:10.513Z,8.45
2019-03-15T17:00:41.210Z,8.25
2019-03-15T17:03:11.735Z,7.95
2019-03-15T17:05:42.739Z,8.15
2019-03-15T17:08:13.357Z,8.00
2019-03-15T17:10:43.952Z,7.70
2019-03-15T17:13:14.293Z,8.05
2019-03-15T17:15:44.872Z,8.70
2019-03-15T17:18:15.450Z,7.75
2019-03-15T17:20:46.120Z,7.50
2019-03-15T17:23:16.651Z,7.35
2019-03-15T17:25:48.259Z,7.72
2019-03-15T17:28:19.089Z,7.78
2019-03-15T17:30:51.572Z,8.00
2019-03-15T17:33:21.883Z,8.35
2019-03-15T17:35:52.332Z,8.78
2019-03-15T17:38:22.655Z,7.85
2019-03-15T17:40:52.979Z,8.00
2019-03-15T17:43:24.324Z,8.30
2019-03-15T17:45:54.664Z,7.83
2019-03-15T17:48:25.043Z,8.20
2019-03-15T17:50:55.460Z,7.05
2019-03-15T17:53:25.713Z,7.53
2019-03-15T17:55:56.725Z,7.42
2019-03-15T17:58:27.011Z,7.53
2019-03-15T18:00:57.334Z,7.25
2019-03-15T18:03:27.710Z,7.92
2019-03-15T18:05:58.309Z,7.20
2019-03-15T18:08:28.640Z,7.53
2019-03-15T18:11:01.128Z,17.12
2019-03-15T18:13:31.565Z,28.15
2019-03-15T18:16:01.815Z,17.48
2019-03-15T18:18:32.131Z,21.12
2019-03-15T18:21:02.521Z,18.87
2019-03-15T18:23:33.089Z,18.57
2019-03-15T18:26:03.654Z,18.02
2019-03-15T18:28:34.016Z,19.65
2019-03-15T18:31:04.427Z,20.23
2019-03-15T18:33:34.686Z,21.05
2019-03-15T18:36:05.137Z,20.43
2019-03-15T18:38:35.426Z,20.95
2019-03-15T18:41:05.682Z,20.23
2019-03-15T18:43:35.967Z,20.17
2019-03-15T18:46:06.295Z,20.00
2019-03-15T18:48:36.697Z,21.17
2019-03-15T18:51:07.037Z,21.23
2019-03-15T18:53:37.302Z,20.27
2019-03-15T18:56:09.859Z,20.05
2019-03-15T18:58:40.159Z,19.35
2019-03-15T19:01:10.483Z,20.90
2019-03-15T19:03:40.872Z,20.88
2019-03-15T19:06:11.201Z,20.23
2019-03-15T19:08:41.581Z,19.77
2019-03-15T19:11:11.862Z,20.35
2019-03-15T19:13:42.207Z,19.07
2019-03-15T19:16:20.087Z,20.62
2019-03-15T19:18:45.774Z,20.08
2019-03-15T19:21:16.355Z,19.73
2019-03-15T19:23:46.617Z,20.20
2019-03-15T19:26:16.987Z,19.98
2019-03-15T19:28:47.349Z,19.27
2019-03-15T19:31:17.642Z,19.87
2019-03-15T19:33:48.323Z,18.98
2019-03-15T19:36:18.689Z,20.88
2019-03-15T19:38:51.124Z,22.73
2019-03-15T19:41:21.343Z,22.50
2019-03-15T19:43:51.660Z,23.65
2019-03-15T19:46:21.951Z,25.50
2019-03-15T19:48:52.670Z,25.02
2019-03-15T19:51:23.188Z,25.25
2019-03-15T19:53:53.508Z,24.30
2019-03-15T19:56:23.897Z,24.27
2019-03-15T19:58:54.483Z,23.98
2019-03-15T20:01:24.776Z,26.37
2019-03-15T20:03:55.100Z,26.25
2019-03-15T20:06:25.594Z,26.55
2019-03-15T20:08:55.924Z,27.02
2019-03-15T20:11:27.348Z,25.62
2019-03-15T20:13:57.882Z,24.85
2019-03-15T20:16:28.360Z,26.35
2019-03-15T20:18:58.691Z,25.45
2019-03-15T20:21:29.183Z,25.00
2019-03-15T20:23:59.618Z,25.90
2019-03-15T20:26:29.925Z,27.35
2019-03-15T20:29:01.575Z,32.58
2019-03-15T20:31:31.971Z,29.87
2019-03-15T20:34:02.335Z,30.45
2019-03-15T20:36:33.819Z,42.00
2019-03-15T20:39:06.651Z,37.98
2019-03-15T20:41:37.735Z,34.65
2019-03-15T20:44:08.382Z,34.35
2019-03-15T20:46:40.307Z,33.65
2019-03-15T20:49:11.285Z,33.45
2019-03-15T20:51:44.935Z,32.75
2019-03-15T20:54:15.408Z,33.70
2019-03-15T20:56:47.467Z,35.43
2019-03-15T20:59:18.550Z,34.73
2019-03-15T21:01:49.450Z,33.25
2019-03-15T21:04:20.954Z,33.30
2019-03-15T21:06:54.254Z,32.28
2019-03-15T21:09:25.241Z,33.48
2019-03-15T21:11:56.466Z,32.98
2019-03-15T21:14:30.514Z,34.73
2019-03-15T21:17:01.916Z,34.15
2019-03-15T21:19:32.752Z,35.00
2019-03-15T21:22:04.134Z,33.70
2019-03-15T21:24:34.484Z,40.40
2019-03-15T21:27:08.423Z,44.73
2019-03-15T21:29:38.942Z,56.10
2019-03-15T21:32:09.383Z,51.63
2019-03-15T21:34:39.753Z,71.55
2019-03-15T21:37:10.188Z,62.35
2019-03-15T21:39:40.424Z,64.50
2019-03-15T21:42:10.868Z,77.60
2019-03-15T21:44:41.142Z,76.30
2019-03-15T21:47:11.425Z,73.02
2019-03-15T21:49:41.766Z,68.30
2019-03-15T21:52:12.096Z,68.52
2019-03-15T21:54:42.455Z,66.33
2019-03-15T21:57:12.771Z,66.25
2019-03-15T21:59:43.105Z,67.35
2019-03-15T22:02:15.214Z,63.95
2019-03-15T22:04:45.574Z,67.97
2019-03-15T22:07:16.003Z,66.15
2019-03-15T22:09:46.276Z,63.68
2019-03-15T22:12:16.633Z,63.70
2019-03-15T22:14:47.033Z,64.17
2019-03-15T22:17:17.283Z,60.25
2019-03-15T22:19:47.534Z,62.55
2019-03-15T22:22:20.207Z,61.20
2019-03-15T22:24:49.877Z,63.25
2019-03-15T22:27:23.025Z,65.75
2019-03-15T22:29:54.012Z,64.03
2019-03-15T22:32:25.416Z,63.35
2019-03-15T22:34:57.312Z,65.45
2019-03-15T22:37:27.626Z,69.58
2019-03-15T22:39:58.013Z,67.87
2019-03-15T22:42:28.305Z,66.22
2019-03-15T22:44:58.639Z,68.83
2019-03-15T22:47:30.637Z,66.80
2019-03-15T22:50:01.846Z,66.25
2019-03-15T22:52:32.259Z,66.33
2019-03-15T22:55:02.622Z,67.60
2019-03-15T22:57:33.864Z,66.60
2019-03-15T23:00:05.897Z,65.45
2019-03-15T23:02:38.220Z,66.55
2019-03-15T23:05:08.646Z,65.40
2019-03-15T23:07:39.034Z,67.50
2019-03-15T23:10:09.518Z,66.02
2019-03-15T23:12:39.822Z,64.82
2019-03-15T23:15:10.122Z,62.15
2019-03-15T23:17:40.467Z,65.25
2019-03-15T23:20:10.818Z,61.70
2019-03-15T23:22:41.201Z,64.25
2019-03-15T23:25:11.582Z,61.15
2019-03-15T23:27:41.859Z,63.02
2019-03-15T23:30:15.079Z,61.50
2019-03-15T23:32:46.456Z,60.43
2019-03-15T23:35:16.775Z,60.25
2019-03-15T23:37:47.027Z,60.92
2019-03-15T23:40:17.330Z,59.53
2019-03-15T23:42:49.468Z,58.42
2019-03-15T23:45:19.799Z,59.83
2019-03-15T23:47:50.078Z,59.63
2019-03-15T23:50:20.380Z,56.28
2019-03-15T23:52:50.706Z,57.03
2019-03-15T23:55:21.006Z,56.02
2019-03-15T23:57:51.334Z,57.05
